sensor_id;sensor_type;location;lat;lon;timestamp;temperature;humidity
60469;DHT22;46316;47.582;10.238;2022-12-05T00:01:16;1.50;89.30
60469;DHT22;46316;47.582;10.238;2022-12-05T00:03:42;1.40;89.00
60469;DHT22;46316;47.582;10.238;2022-12-05T00:06:08;1.40;89.30
60469;DHT22;46316;47.582;10.238;2022-12-05T00:08:33;1.40;89.40
60469;DHT22;46316;47.582;10.238;2022-12-05T00:10:59;1.40;89.70
60469;DHT22;46316;47.582;10.238;2022-12-05T00:13:24;1.40;89.80
60469;DHT22;46316;47.582;10.238;2022-12-05T00:15:50;1.30;90.00
60469;DHT22;46316;47.582;10.238;2022-12-05T00:18:16;1.40;90.10
60469;DHT22;46316;47.582;10.238;2022-12-05T00:20:45;1.40;90.00
60469;DHT22;46316;47.582;10.238;2022-12-05T00:23:11;1.40;89.80
60469;DHT22;46316;47.582;10.238;2022-12-05T00:25:37;1.40;89.70
60469;DHT22;46316;47.582;10.238;2022-12-05T00:28:02;1.30;89.90
60469;DHT22;46316;47.582;10.238;2022-12-05T00:30:28;1.20;89.80
60469;DHT22;46316;47.582;10.238;2022-12-05T00:32:53;1.20;90.00
60469;DHT22;46316;47.582;10.238;2022-12-05T00:35:19;1.20;90.20
60469;DHT22;46316;47.582;10.238;2022-12-05T00:37:44;1.30;90.20
60469;DHT22;46316;47.582;10.238;2022-12-05T00:40:10;1.30;90.10
60469;DHT22;46316;47.582;10.238;2022-12-05T00:42:35;1.30;89.80
60469;DHT22;46316;47.582;10.238;2022-12-05T00:45:01;1.30;90.00
60469;DHT22;46316;47.582;10.238;2022-12-05T00:47:26;1.30;90.20
60469;DHT22;46316;47.582;10.238;2022-12-05T00:49:52;1.30;90.10
60469;DHT22;46316;47.582;10.238;2022-12-05T00:52:17;1.40;90.10
60469;DHT22;46316;47.582;10.238;2022-12-05T00:54:43;1.40;90.10
60469;DHT22;46316;47.582;10.238;2022-12-05T00:57:08;1.50;89.70
60469;DHT22;46316;47.582;10.238;2022-12-05T00:59:34;1.40;89.60
60469;DHT22;46316;47.582;10.238;2022-12-05T01:01:59;1.40;89.90
60469;DHT22;46316;47.582;10.238;2022-12-05T01:04:25;1.40;89.90
60469;DHT22;46316;47.582;10.238;2022-12-05T01:06:53;1.40;89.90
60469;DHT22;46316;47.582;10.238;2022-12-05T01:09:18;1.40;90.10
60469;DHT22;46316;47.582;10.238;2022-12-05T01:11:44;1.50;90.30
60469;DHT22;46316;47.582;10.238;2022-12-05T01:14:11;1.50;90.00
60469;DHT22;46316;47.582;10.238;2022-12-05T01:16:37;1.50;89.90
60469;DHT22;46316;47.582;10.238;2022-12-05T01:19:04;1.50;89.80
60469;DHT22;46316;47.582;10.238;2022-12-05T01:21:30;1.50;89.90
60469;DHT22;46316;47.582;10.238;2022-12-05T01:23:56;1.50;89.80
60469;DHT22;46316;47.582;10.238;2022-12-05T01:26:21;1.60;89.80
60469;DHT22;46316;47.582;10.238;2022-12-05T01:28:48;1.50;89.60
60469;DHT22;46316;47.582;10.238;2022-12-05T01:33:42;1.60;89.70
60469;DHT22;46316;47.582;10.238;2022-12-05T01:36:09;1.60;89.80
60469;DHT22;46316;47.582;10.238;2022-12-05T01:38:34;1.70;89.90
60469;DHT22;46316;47.582;10.238;2022-12-05T01:41:01;1.70;90.10
60469;DHT22;46316;47.582;10.238;2022-12-05T01:43:27;1.70;90.20
60469;DHT22;46316;47.582;10.238;2022-12-05T01:45:52;1.80;90.20
60469;DHT22;46316;47.582;10.238;2022-12-05T01:48:18;1.80;90.40
60469;DHT22;46316;47.582;10.238;2022-12-05T01:50:45;1.80;90.30
60469;DHT22;46316;47.582;10.238;2022-12-05T01:53:11;1.90;90.20
60469;DHT22;46316;47.582;10.238;2022-12-05T01:55:37;1.90;90.30
60469;DHT22;46316;47.582;10.238;2022-12-05T01:58:04;1.90;90.10
60469;DHT22;46316;47.582;10.238;2022-12-05T02:00:29;2.00;90.20
60469;DHT22;46316;47.582;10.238;2022-12-05T02:02:56;2.00;90.30
60469;DHT22;46316;47.582;10.238;2022-12-05T02:05:27;2.00;90.50
60469;DHT22;46316;47.582;10.238;2022-12-05T02:07:52;1.90;90.20
60469;DHT22;46316;47.582;10.238;2022-12-05T02:10:18;1.90;90.10
60469;DHT22;46316;47.582;10.238;2022-12-05T02:12:43;1.80;90.00
60469;DHT22;46316;47.582;10.238;2022-12-05T02:17:47;1.70;89.90
60469;DHT22;46316;47.582;10.238;2022-12-05T02:22:52;1.70;89.90
60469;DHT22;46316;47.582;10.238;2022-12-05T02:30:15;1.70;89.90
60469;DHT22;46316;47.582;10.238;2022-12-05T02:38:16;1.70;90.00
60469;DHT22;46316;47.582;10.238;2022-12-05T02:40:45;1.70;90.10
60469;DHT22;46316;47.582;10.238;2022-12-05T02:43:25;1.70;90.00
60469;DHT22;46316;47.582;10.238;2022-12-05T02:45:54;1.70;89.80
60469;DHT22;46316;47.582;10.238;2022-12-05T02:48:21;1.60;89.70
60469;DHT22;46316;47.582;10.238;2022-12-05T02:50:47;1.60;89.80
60469;DHT22;46316;47.582;10.238;2022-12-05T02:53:16;1.60;89.80
60469;DHT22;46316;47.582;10.238;2022-12-05T02:55:42;1.60;89.70
60469;DHT22;46316;47.582;10.238;2022-12-05T02:58:10;1.50;89.90
60469;DHT22;46316;47.582;10.238;2022-12-05T03:00:37;1.50;90.00
60469;DHT22;46316;47.582;10.238;2022-12-05T03:03:05;1.60;90.20
60469;DHT22;46316;47.582;10.238;2022-12-05T03:08:02;1.60;89.90
60469;DHT22;46316;47.582;10.238;2022-12-05T03:10:29;1.60;90.00
60469;DHT22;46316;47.582;10.238;2022-12-05T03:12:55;1.60;90.00
60469;DHT22;46316;47.582;10.238;2022-12-05T03:15:33;1.70;89.80
60469;DHT22;46316;47.582;10.238;2022-12-05T03:18:03;1.70;89.60
60469;DHT22;46316;47.582;10.238;2022-12-05T03:20:35;1.70;89.60
60469;DHT22;46316;47.582;10.238;2022-12-05T03:23:13;1.70;89.70
60469;DHT22;46316;47.582;10.238;2022-12-05T03:25:51;1.70;89.40
60469;DHT22;46316;47.582;10.238;2022-12-05T03:28:20;1.70;89.50
60469;DHT22;46316;47.582;10.238;2022-12-05T03:30:48;1.80;89.40
60469;DHT22;46316;47.582;10.238;2022-12-05T03:33:17;1.80;89.30
60469;DHT22;46316;47.582;10.238;2022-12-05T03:38:13;1.80;89.40
60469;DHT22;46316;47.582;10.238;2022-12-05T03:40:43;1.80;89.30
60469;DHT22;46316;47.582;10.238;2022-12-05T03:43:20;1.80;89.20
60469;DHT22;46316;47.582;10.238;2022-12-05T03:46:04;1.80;89.20
60469;DHT22;46316;47.582;10.238;2022-12-05T03:51:24;1.80;89.00
60469;DHT22;46316;47.582;10.238;2022-12-05T03:53:58;1.80;89.10
60469;DHT22;46316;47.582;10.238;2022-12-05T03:56:30;1.80;89.20
60469;DHT22;46316;47.582;10.238;2022-12-05T04:01:44;1.80;89.20
60469;DHT22;46316;47.582;10.238;2022-12-05T04:04:13;1.90;89.30
60469;DHT22;46316;47.582;10.238;2022-12-05T04:06:41;1.80;89.30
60469;DHT22;46316;47.582;10.238;2022-12-05T04:09:43;1.80;89.40
60469;DHT22;46316;47.582;10.238;2022-12-05T04:12:06;1.90;89.30
60469;DHT22;46316;47.582;10.238;2022-12-05T04:14:34;1.90;89.30
60469;DHT22;46316;47.582;10.238;2022-12-05T04:18:01;1.90;89.30
60469;DHT22;46316;47.582;10.238;2022-12-05T04:19:58;1.90;89.30
60469;DHT22;46316;47.582;10.238;2022-12-05T04:22:44;1.90;89.20
60469;DHT22;46316;47.582;10.238;2022-12-05T04:25:11;2.00;88.80
60469;DHT22;46316;47.582;10.238;2022-12-05T04:33:16;2.00;88.10
60469;DHT22;46316;47.582;10.238;2022-12-05T04:38:35;2.00;88.40
60469;DHT22;46316;47.582;10.238;2022-12-05T04:41:04;1.90;88.70
60469;DHT22;46316;47.582;10.238;2022-12-05T04:43:32;1.90;88.70
60469;DHT22;46316;47.582;10.238;2022-12-05T04:45:59;1.90;88.80
60469;DHT22;46316;47.582;10.238;2022-12-05T04:48:25;2.00;89.00
60469;DHT22;46316;47.582;10.238;2022-12-05T04:50:52;2.10;89.00
60469;DHT22;46316;47.582;10.238;2022-12-05T04:53:18;2.10;88.80
60469;DHT22;46316;47.582;10.238;2022-12-05T04:55:45;2.10;89.00
60469;DHT22;46316;47.582;10.238;2022-12-05T04:58:18;2.10;89.10
60469;DHT22;46316;47.582;10.238;2022-12-05T05:01:47;2.10;89.00
60469;DHT22;46316;47.582;10.238;2022-12-05T05:06:24;2.00;89.10
60469;DHT22;46316;47.582;10.238;2022-12-05T05:08:51;2.10;89.10
60469;DHT22;46316;47.582;10.238;2022-12-05T05:13:46;2.10;88.80
60469;DHT22;46316;47.582;10.238;2022-12-05T05:16:21;2.10;88.80
60469;DHT22;46316;47.582;10.238;2022-12-05T05:18:47;2.10;88.90
60469;DHT22;46316;47.582;10.238;2022-12-05T05:21:14;2.10;88.70
60469;DHT22;46316;47.582;10.238;2022-12-05T05:23:40;2.10;88.40
60469;DHT22;46316;47.582;10.238;2022-12-05T05:26:05;2.10;87.90
60469;DHT22;46316;47.582;10.238;2022-12-05T05:28:31;2.20;87.60
60469;DHT22;46316;47.582;10.238;2022-12-05T05:31:00;2.10;87.60
60469;DHT22;46316;47.582;10.238;2022-12-05T05:33:26;2.10;87.70
60469;DHT22;46316;47.582;10.238;2022-12-05T05:35:51;2.10;88.00
60469;DHT22;46316;47.582;10.238;2022-12-05T05:38:16;2.10;88.10
60469;DHT22;46316;47.582;10.238;2022-12-05T05:40:42;2.20;88.40
60469;DHT22;46316;47.582;10.238;2022-12-05T05:43:08;2.20;88.70
60469;DHT22;46316;47.582;10.238;2022-12-05T05:45:34;2.20;88.80
60469;DHT22;46316;47.582;10.238;2022-12-05T05:48:00;2.20;89.00
60469;DHT22;46316;47.582;10.238;2022-12-05T05:50:25;2.20;88.80
60469;DHT22;46316;47.582;10.238;2022-12-05T05:52:51;2.20;88.60
60469;DHT22;46316;47.582;10.238;2022-12-05T05:55:16;2.20;88.10
60469;DHT22;46316;47.582;10.238;2022-12-05T05:57:42;2.20;87.80
60469;DHT22;46316;47.582;10.238;2022-12-05T06:00:07;2.20;87.40
60469;DHT22;46316;47.582;10.238;2022-12-05T06:02:34;2.20;87.30
60469;DHT22;46316;47.582;10.238;2022-12-05T06:05:00;2.10;87.50
60469;DHT22;46316;47.582;10.238;2022-12-05T06:07:26;2.10;87.80
60469;DHT22;46316;47.582;10.238;2022-12-05T06:09:51;2.10;87.90
60469;DHT22;46316;47.582;10.238;2022-12-05T06:12:17;2.10;88.00
60469;DHT22;46316;47.582;10.238;2022-12-05T06:14:42;2.10;88.00
60469;DHT22;46316;47.582;10.238;2022-12-05T06:17:08;2.10;88.10
60469;DHT22;46316;47.582;10.238;2022-12-05T06:19:33;2.10;88.10
60469;DHT22;46316;47.582;10.238;2022-12-05T06:21:59;2.10;88.30
60469;DHT22;46316;47.582;10.238;2022-12-05T06:24:24;2.20;88.60
60469;DHT22;46316;47.582;10.238;2022-12-05T06:26:50;2.30;88.20
60469;DHT22;46316;47.582;10.238;2022-12-05T06:29:15;2.30;88.20
60469;DHT22;46316;47.582;10.238;2022-12-05T06:31:41;2.30;88.10
60469;DHT22;46316;47.582;10.238;2022-12-05T06:34:06;2.30;88.00
60469;DHT22;46316;47.582;10.238;2022-12-05T06:36:32;2.30;87.90
60469;DHT22;46316;47.582;10.238;2022-12-05T06:38:58;2.30;88.20
60469;DHT22;46316;47.582;10.238;2022-12-05T06:41:24;2.40;88.40
60469;DHT22;46316;47.582;10.238;2022-12-05T06:43:53;2.30;88.50
60469;DHT22;46316;47.582;10.238;2022-12-05T06:46:19;2.40;88.70
60469;DHT22;46316;47.582;10.238;2022-12-05T06:48:45;2.40;88.80
60469;DHT22;46316;47.582;10.238;2022-12-05T06:51:11;2.40;88.50
60469;DHT22;46316;47.582;10.238;2022-12-05T06:53:37;2.40;88.50
60469;DHT22;46316;47.582;10.238;2022-12-05T06:56:03;2.40;88.40
60469;DHT22;46316;47.582;10.238;2022-12-05T06:58:29;2.40;88.50
60469;DHT22;46316;47.582;10.238;2022-12-05T07:00:55;2.40;88.40
60469;DHT22;46316;47.582;10.238;2022-12-05T07:03:39;2.40;88.30
60469;DHT22;46316;47.582;10.238;2022-12-05T07:06:05;2.40;88.30
60469;DHT22;46316;47.582;10.238;2022-12-05T07:08:31;2.50;88.20
60469;DHT22;46316;47.582;10.238;2022-12-05T07:10:57;2.50;88.30
60469;DHT22;46316;47.582;10.238;2022-12-05T07:13:23;2.50;88.30
60469;DHT22;46316;47.582;10.238;2022-12-05T07:15:48;2.50;88.30
60469;DHT22;46316;47.582;10.238;2022-12-05T07:18:14;2.50;88.00
60469;DHT22;46316;47.582;10.238;2022-12-05T07:20:40;2.60;87.80
60469;DHT22;46316;47.582;10.238;2022-12-05T07:23:06;2.60;87.90
60469;DHT22;46316;47.582;10.238;2022-12-05T07:25:31;2.60;87.70
60469;DHT22;46316;47.582;10.238;2022-12-05T07:27:57;2.60;87.50
60469;DHT22;46316;47.582;10.238;2022-12-05T07:30:22;2.60;87.50
60469;DHT22;46316;47.582;10.238;2022-12-05T07:32:48;2.70;87.50
60469;DHT22;46316;47.582;10.238;2022-12-05T07:35:13;2.70;87.50
60469;DHT22;46316;47.582;10.238;2022-12-05T07:37:39;2.70;87.50
60469;DHT22;46316;47.582;10.238;2022-12-05T07:40:04;2.80;87.20
60469;DHT22;46316;47.582;10.238;2022-12-05T07:42:30;2.90;87.00
60469;DHT22;46316;47.582;10.238;2022-12-05T07:44:55;2.90;87.00
60469;DHT22;46316;47.582;10.238;2022-12-05T07:47:21;2.90;86.90
60469;DHT22;46316;47.582;10.238;2022-12-05T07:49:46;3.00;86.60
60469;DHT22;46316;47.582;10.238;2022-12-05T07:52:12;2.90;86.40
60469;DHT22;46316;47.582;10.238;2022-12-05T07:54:37;2.90;86.60
60469;DHT22;46316;47.582;10.238;2022-12-05T07:57:03;2.90;86.50
60469;DHT22;46316;47.582;10.238;2022-12-05T07:59:28;2.90;86.70
60469;DHT22;46316;47.582;10.238;2022-12-05T08:01:54;2.90;86.50
60469;DHT22;46316;47.582;10.238;2022-12-05T08:04:19;3.00;86.40
60469;DHT22;46316;47.582;10.238;2022-12-05T08:06:45;3.10;86.50
60469;DHT22;46316;47.582;10.238;2022-12-05T08:09:10;3.10;86.50
60469;DHT22;46316;47.582;10.238;2022-12-05T08:11:36;3.20;86.30
60469;DHT22;46316;47.582;10.238;2022-12-05T08:14:02;3.20;85.80
60469;DHT22;46316;47.582;10.238;2022-12-05T08:16:28;3.30;86.20
60469;DHT22;46316;47.582;10.238;2022-12-05T08:18:55;3.30;86.40
60469;DHT22;46316;47.582;10.238;2022-12-05T08:21:20;3.40;86.40
60469;DHT22;46316;47.582;10.238;2022-12-05T08:23:46;3.40;86.50
60469;DHT22;46316;47.582;10.238;2022-12-05T08:26:13;3.40;86.50
60469;DHT22;46316;47.582;10.238;2022-12-05T08:28:39;3.40;86.40
60469;DHT22;46316;47.582;10.238;2022-12-05T08:31:05;3.40;86.50
60469;DHT22;46316;47.582;10.238;2022-12-05T08:33:31;3.40;86.90
60469;DHT22;46316;47.582;10.238;2022-12-05T08:35:58;3.40;87.10
60469;DHT22;46316;47.582;10.238;2022-12-05T08:38:24;3.40;87.30
60469;DHT22;46316;47.582;10.238;2022-12-05T08:40:49;3.40;87.60
60469;DHT22;46316;47.582;10.238;2022-12-05T08:43:15;3.30;87.50
60469;DHT22;46316;47.582;10.238;2022-12-05T08:45:40;3.30;87.90
60469;DHT22;46316;47.582;10.238;2022-12-05T08:48:12;3.20;88.00
60469;DHT22;46316;47.582;10.238;2022-12-05T08:50:37;3.20;87.90
60469;DHT22;46316;47.582;10.238;2022-12-05T08:53:03;3.20;87.60
60469;DHT22;46316;47.582;10.238;2022-12-05T08:55:28;3.30;87.50
60469;DHT22;46316;47.582;10.238;2022-12-05T08:57:54;3.30;87.10
60469;DHT22;46316;47.582;10.238;2022-12-05T09:00:19;3.30;86.90
60469;DHT22;46316;47.582;10.238;2022-12-05T09:02:48;3.20;86.70
60469;DHT22;46316;47.582;10.238;2022-12-05T09:05:14;3.30;86.50
60469;DHT22;46316;47.582;10.238;2022-12-05T09:07:40;3.20;86.50
60469;DHT22;46316;47.582;10.238;2022-12-05T09:10:06;3.30;86.20
60469;DHT22;46316;47.582;10.238;2022-12-05T09:12:32;3.20;85.90
60469;DHT22;46316;47.582;10.238;2022-12-05T09:14:59;3.20;85.60
60469;DHT22;46316;47.582;10.238;2022-12-05T09:17:25;3.20;85.70
60469;DHT22;46316;47.582;10.238;2022-12-05T09:19:50;3.20;85.80
60469;DHT22;46316;47.582;10.238;2022-12-05T09:22:16;3.10;85.90
60469;DHT22;46316;47.582;10.238;2022-12-05T09:24:42;3.20;86.00
60469;DHT22;46316;47.582;10.238;2022-12-05T09:27:07;3.20;85.90
60469;DHT22;46316;47.582;10.238;2022-12-05T09:29:33;3.30;85.80
60469;DHT22;46316;47.582;10.238;2022-12-05T09:31:58;3.20;85.50
60469;DHT22;46316;47.582;10.238;2022-12-05T09:34:24;3.30;85.80
60469;DHT22;46316;47.582;10.238;2022-12-05T09:36:50;3.30;85.80
60469;DHT22;46316;47.582;10.238;2022-12-05T09:39:16;3.20;86.10
60469;DHT22;46316;47.582;10.238;2022-12-05T09:47:22;3.30;85.30
60469;DHT22;46316;47.582;10.238;2022-12-05T09:50:05;3.40;85.30
60469;DHT22;46316;47.582;10.238;2022-12-05T09:52:36;3.40;84.90
60469;DHT22;46316;47.582;10.238;2022-12-05T09:55:16;3.50;84.80
60469;DHT22;46316;47.582;10.238;2022-12-05T09:57:50;3.40;84.80
60469;DHT22;46316;47.582;10.238;2022-12-05T10:00:16;3.50;84.70
60469;DHT22;46316;47.582;10.238;2022-12-05T10:05:16;3.40;84.80
60469;DHT22;46316;47.582;10.238;2022-12-05T10:07:46;3.50;84.70
60469;DHT22;46316;47.582;10.238;2022-12-05T10:10:20;3.50;84.70
60469;DHT22;46316;47.582;10.238;2022-12-05T10:17:41;3.40;84.60
60469;DHT22;46316;47.582;10.238;2022-12-05T10:20:10;3.40;84.70
60469;DHT22;46316;47.582;10.238;2022-12-05T10:25:09;3.40;84.30
60469;DHT22;46316;47.582;10.238;2022-12-05T10:27:36;3.40;84.40
60469;DHT22;46316;47.582;10.238;2022-12-05T10:30:03;3.40;84.70
60469;DHT22;46316;47.582;10.238;2022-12-05T10:32:31;3.40;84.80
60469;DHT22;46316;47.582;10.238;2022-12-05T10:35:14;3.40;85.00
60469;DHT22;46316;47.582;10.238;2022-12-05T10:37:41;3.40;85.40
60469;DHT22;46316;47.582;10.238;2022-12-05T10:40:10;3.40;85.60
60469;DHT22;46316;47.582;10.238;2022-12-05T10:42:36;3.40;85.60
60469;DHT22;46316;47.582;10.238;2022-12-05T10:45:02;3.40;86.10
60469;DHT22;46316;47.582;10.238;2022-12-05T10:47:29;3.40;85.80
60469;DHT22;46316;47.582;10.238;2022-12-05T10:49:56;3.40;85.50
60469;DHT22;46316;47.582;10.238;2022-12-05T10:52:22;3.50;85.10
60469;DHT22;46316;47.582;10.238;2022-12-05T10:54:50;3.40;85.30
60469;DHT22;46316;47.582;10.238;2022-12-05T10:57:26;3.40;85.50
60469;DHT22;46316;47.582;10.238;2022-12-05T10:59:51;3.40;85.40
60469;DHT22;46316;47.582;10.238;2022-12-05T11:02:25;3.40;85.90
60469;DHT22;46316;47.582;10.238;2022-12-05T11:04:50;3.40;86.40
60469;DHT22;46316;47.582;10.238;2022-12-05T11:07:30;3.30;86.80
60469;DHT22;46316;47.582;10.238;2022-12-05T11:09:56;3.40;86.70
60469;DHT22;46316;47.582;10.238;2022-12-05T11:12:23;3.40;86.50
60469;DHT22;46316;47.582;10.238;2022-12-05T11:17:26;3.20;86.80
60469;DHT22;46316;47.582;10.238;2022-12-05T11:19:52;3.10;87.10
60469;DHT22;46316;47.582;10.238;2022-12-05T11:22:17;3.10;87.40
60469;DHT22;46316;47.582;10.238;2022-12-05T11:24:43;3.10;87.80
60469;DHT22;46316;47.582;10.238;2022-12-05T11:29:40;3.30;87.30
60469;DHT22;46316;47.582;10.238;2022-12-05T11:32:16;3.40;87.40
60469;DHT22;46316;47.582;10.238;2022-12-05T11:34:44;3.40;87.10
60469;DHT22;46316;47.582;10.238;2022-12-05T11:37:19;3.40;86.90
60469;DHT22;46316;47.582;10.238;2022-12-05T11:39:46;3.30;87.00
60469;DHT22;46316;47.582;10.238;2022-12-05T11:42:18;3.30;87.20
60469;DHT22;46316;47.582;10.238;2022-12-05T11:52:41;3.20;87.50
60469;DHT22;46316;47.582;10.238;2022-12-05T11:55:18;3.10;87.30
60469;DHT22;46316;47.582;10.238;2022-12-05T12:00:34;3.10;87.70
60469;DHT22;46316;47.582;10.238;2022-12-05T12:11:25;3.00;87.30
60469;DHT22;46316;47.582;10.238;2022-12-05T12:18:59;2.90;87.60
60469;DHT22;46316;47.582;10.238;2022-12-05T12:27:18;2.90;88.40
60469;DHT22;46316;47.582;10.238;2022-12-05T12:40:12;3.00;88.30
60469;DHT22;46316;47.582;10.238;2022-12-05T12:45:14;3.00;88.10
60469;DHT22;46316;47.582;10.238;2022-12-05T12:50:16;3.00;87.80
60469;DHT22;46316;47.582;10.238;2022-12-05T12:53:01;2.90;87.90
60469;DHT22;46316;47.582;10.238;2022-12-05T13:03:38;3.00;87.70
60469;DHT22;46316;47.582;10.238;2022-12-05T13:08:53;3.10;87.40
60469;DHT22;46316;47.582;10.238;2022-12-05T13:11:19;3.10;87.30
60469;DHT22;46316;47.582;10.238;2022-12-05T13:13:47;3.10;87.00
60469;DHT22;46316;47.582;10.238;2022-12-05T13:16:24;3.00;87.30
60469;DHT22;46316;47.582;10.238;2022-12-05T13:18:50;3.00;87.40
60469;DHT22;46316;47.582;10.238;2022-12-05T13:21:15;2.90;87.50
60469;DHT22;46316;47.582;10.238;2022-12-05T13:23:44;2.90;87.90
60469;DHT22;46316;47.582;10.238;2022-12-05T13:26:10;2.90;87.70
60469;DHT22;46316;47.582;10.238;2022-12-05T13:28:46;2.80;88.00
60469;DHT22;46316;47.582;10.238;2022-12-05T13:31:13;2.80;88.10
60469;DHT22;46316;47.582;10.238;2022-12-05T13:33:42;2.70;88.00
60469;DHT22;46316;47.582;10.238;2022-12-05T13:36:11;2.70;88.40
60469;DHT22;46316;47.582;10.238;2022-12-05T13:38:58;2.70;88.50
60469;DHT22;46316;47.582;10.238;2022-12-05T13:41:43;2.60;88.60
60469;DHT22;46316;47.582;10.238;2022-12-05T13:44:38;2.60;88.70
60469;DHT22;46316;47.582;10.238;2022-12-05T13:47:06;2.60;88.80
60469;DHT22;46316;47.582;10.238;2022-12-05T13:49:35;2.50;88.90
60469;DHT22;46316;47.582;10.238;2022-12-05T13:52:11;2.50;88.80
60469;DHT22;46316;47.582;10.238;2022-12-05T13:54:41;2.50;88.70
60469;DHT22;46316;47.582;10.238;2022-12-05T13:57:12;2.50;88.80
60469;DHT22;46316;47.582;10.238;2022-12-05T14:00:03;2.50;88.50
60469;DHT22;46316;47.582;10.238;2022-12-05T14:10:13;2.50;88.40
60469;DHT22;46316;47.582;10.238;2022-12-05T14:12:57;2.40;88.30
60469;DHT22;46316;47.582;10.238;2022-12-05T14:15:27;2.40;88.50
60469;DHT22;46316;47.582;10.238;2022-12-05T14:17:54;2.40;88.50
60469;DHT22;46316;47.582;10.238;2022-12-05T14:22:56;2.40;88.80
60469;DHT22;46316;47.582;10.238;2022-12-05T14:25:32;2.40;88.70
60469;DHT22;46316;47.582;10.238;2022-12-05T14:28:12;2.40;88.60
60469;DHT22;46316;47.582;10.238;2022-12-05T14:33:17;2.40;88.20
60469;DHT22;46316;47.582;10.238;2022-12-05T14:35:47;2.50;88.30
60469;DHT22;46316;47.582;10.238;2022-12-05T14:38:25;2.50;88.40
60469;DHT22;46316;47.582;10.238;2022-12-05T14:40:51;2.50;88.00
60469;DHT22;46316;47.582;10.238;2022-12-05T14:43:28;2.60;87.60
60469;DHT22;46316;47.582;10.238;2022-12-05T14:45:56;2.60;87.60
60469;DHT22;46316;47.582;10.238;2022-12-05T14:48:27;2.60;87.60
60469;DHT22;46316;47.582;10.238;2022-12-05T14:50:54;2.60;87.60
60469;DHT22;46316;47.582;10.238;2022-12-05T14:56:02;2.50;87.60
60469;DHT22;46316;47.582;10.238;2022-12-05T14:58:40;2.60;86.90
60469;DHT22;46316;47.582;10.238;2022-12-05T15:01:15;2.60;86.40
60469;DHT22;46316;47.582;10.238;2022-12-05T15:03:42;2.60;86.40
60469;DHT22;46316;47.582;10.238;2022-12-05T15:06:15;2.60;85.90
60469;DHT22;46316;47.582;10.238;2022-12-05T15:08:48;2.70;85.50
60469;DHT22;46316;47.582;10.238;2022-12-05T15:11:15;2.70;86.00
60469;DHT22;46316;47.582;10.238;2022-12-05T15:13:57;2.70;86.10
60469;DHT22;46316;47.582;10.238;2022-12-05T15:16:24;2.60;86.30
60469;DHT22;46316;47.582;10.238;2022-12-05T15:18:55;2.60;86.50
60469;DHT22;46316;47.582;10.238;2022-12-05T15:21:27;2.50;86.50
60469;DHT22;46316;47.582;10.238;2022-12-05T15:26:28;2.50;86.60
60469;DHT22;46316;47.582;10.238;2022-12-05T15:28:58;2.50;86.50
60469;DHT22;46316;47.582;10.238;2022-12-05T15:31:25;2.50;86.50
60469;DHT22;46316;47.582;10.238;2022-12-05T15:33:51;2.50;86.20
60469;DHT22;46316;47.582;10.238;2022-12-05T15:36:18;2.50;86.00
60469;DHT22;46316;47.582;10.238;2022-12-05T15:38:47;2.50;86.20
60469;DHT22;46316;47.582;10.238;2022-12-05T15:41:15;2.40;86.50
60469;DHT22;46316;47.582;10.238;2022-12-05T15:43:42;2.40;86.60
60469;DHT22;46316;47.582;10.238;2022-12-05T15:46:22;2.40;86.60
60469;DHT22;46316;47.582;10.238;2022-12-05T15:48:49;2.30;87.10
60469;DHT22;46316;47.582;10.238;2022-12-05T15:51:15;2.30;87.40
60469;DHT22;46316;47.582;10.238;2022-12-05T15:53:43;2.20;87.80
60469;DHT22;46316;47.582;10.238;2022-12-05T16:01:03;2.10;88.60
60469;DHT22;46316;47.582;10.238;2022-12-05T16:06:03;2.10;89.20
60469;DHT22;46316;47.582;10.238;2022-12-05T16:08:31;2.00;89.60
60469;DHT22;46316;47.582;10.238;2022-12-05T16:11:08;2.00;89.90
60469;DHT22;46316;47.582;10.238;2022-12-05T16:13:34;2.00;90.20
60469;DHT22;46316;47.582;10.238;2022-12-05T16:15:59;1.90;90.40
60469;DHT22;46316;47.582;10.238;2022-12-05T16:18:29;1.90;90.60
60469;DHT22;46316;47.582;10.238;2022-12-05T16:20:55;1.90;90.70
60469;DHT22;46316;47.582;10.238;2022-12-05T16:23:58;1.90;90.80
60469;DHT22;46316;47.582;10.238;2022-12-05T16:28:39;1.80;90.80
60469;DHT22;46316;47.582;10.238;2022-12-05T16:31:04;1.80;91.10
60469;DHT22;46316;47.582;10.238;2022-12-05T16:33:30;1.80;91.20
60469;DHT22;46316;47.582;10.238;2022-12-05T16:36:09;1.80;91.20
60469;DHT22;46316;47.582;10.238;2022-12-05T16:38:35;1.80;91.30
60469;DHT22;46316;47.582;10.238;2022-12-05T16:41:02;1.70;91.30
60469;DHT22;46316;47.582;10.238;2022-12-05T16:45:56;1.70;91.40
60469;DHT22;46316;47.582;10.238;2022-12-05T16:48:27;1.70;91.40
60469;DHT22;46316;47.582;10.238;2022-12-05T16:51:15;1.70;91.40
60469;DHT22;46316;47.582;10.238;2022-12-05T16:53:40;1.70;91.40
60469;DHT22;46316;47.582;10.238;2022-12-05T16:56:07;1.70;91.30
60469;DHT22;46316;47.582;10.238;2022-12-05T16:58:36;1.70;91.30
60469;DHT22;46316;47.582;10.238;2022-12-05T17:01:05;1.70;91.20
60469;DHT22;46316;47.582;10.238;2022-12-05T17:03:31;1.60;91.10
60469;DHT22;46316;47.582;10.238;2022-12-05T17:05:57;1.60;91.10
60469;DHT22;46316;47.582;10.238;2022-12-05T17:08:23;1.50;91.00
60469;DHT22;46316;47.582;10.238;2022-12-05T17:10:49;1.50;91.20
60469;DHT22;46316;47.582;10.238;2022-12-05T17:13:16;1.40;91.10
60469;DHT22;46316;47.582;10.238;2022-12-05T17:15:42;1.40;91.20
60469;DHT22;46316;47.582;10.238;2022-12-05T17:18:15;1.30;91.30
60469;DHT22;46316;47.582;10.238;2022-12-05T17:20:42;1.30;91.30
60469;DHT22;46316;47.582;10.238;2022-12-05T17:23:11;1.20;91.30
60469;DHT22;46316;47.582;10.238;2022-12-05T17:25:37;1.20;91.40
60469;DHT22;46316;47.582;10.238;2022-12-05T17:28:03;1.20;91.40
60469;DHT22;46316;47.582;10.238;2022-12-05T17:30:29;1.20;91.40
60469;DHT22;46316;47.582;10.238;2022-12-05T17:32:54;1.10;91.50
60469;DHT22;46316;47.582;10.238;2022-12-05T17:35:20;1.00;91.50
60469;DHT22;46316;47.582;10.238;2022-12-05T17:37:46;1.00;91.60
60469;DHT22;46316;47.582;10.238;2022-12-05T17:40:12;1.00;91.60
60469;DHT22;46316;47.582;10.238;2022-12-05T17:42:38;0.90;91.60
60469;DHT22;46316;47.582;10.238;2022-12-05T17:45:04;0.90;91.50
60469;DHT22;46316;47.582;10.238;2022-12-05T17:47:33;0.80;91.40
60469;DHT22;46316;47.582;10.238;2022-12-05T17:49:58;0.70;91.30
60469;DHT22;46316;47.582;10.238;2022-12-05T17:52:25;0.60;91.70
60469;DHT22;46316;47.582;10.238;2022-12-05T17:54:51;0.60;91.80
60469;DHT22;46316;47.582;10.238;2022-12-05T17:57:17;0.60;91.90
60469;DHT22;46316;47.582;10.238;2022-12-05T17:59:42;0.50;91.90
60469;DHT22;46316;47.582;10.238;2022-12-05T18:02:08;0.50;91.90
60469;DHT22;46316;47.582;10.238;2022-12-05T18:04:34;0.50;92.00
60469;DHT22;46316;47.582;10.238;2022-12-05T18:06:59;0.40;91.90